Smyrna Mills, Maine
Current Conditions -  °F | °C
As of 10:53 AM on Friday 21 Nov 2014 (Local Time) from KHUL Reporting Station
Broken Clouds Broken Clouds  
Wind Chill: 13°   Ceiling: 3000
Heat Index: 25°   Visibility: 10mi
Dew Point: 13°   Wind: 14mph
Humidity: 60%   Direction: 310°NW
Pressure: 29.82"   Gusts: 25mph
Location:  46.13°N, 68.17°W
Report Text: KHUL 211553Z AUTO 31012G22KT 10SM BKN030 M04/M11 A2982 RMK AO2 SLP107 T10391106
Loading
Personal Weather Stations






























Interactive Weather Map New forecast layout! Learn more

10-Day Weather Forecast

Advertisements
Track Severe Weather on mobile